Parkville, Missouri
Current Conditions -  °F | °C
As of 3:44 AM on Thursday 18 Dec 2014 (Local Time) from KMKC Reporting Station
Light Snow Light Snow  
Wind Chill: 24°   Ceiling: 3000
Heat Index: 30°   Visibility: 1.7mi
Dew Point: 27°   Wind: 6mph
Humidity: 88%   Direction: 80°E
Pressure: 30.23"   Gusts: NA
Location:  39.2125°N, 94.6296°W
Report Text: KMKC 180944Z 08005KT 1 3/4SM -SN BR SCT006 OVC030 M01/M03 A3023 RMK AO2 P0000 T10111028
Loading
Personal Weather Stations






























Interactive Weather Map New forecast layout! Learn more

10-Day Weather Forecast

Advertisements
Track Severe Weather on mobile